Time;durP1;ratioP1;P1;durP2;ratioP2;P2;SDS_P1;SDS_P2;PMS_P1;PMS_P2;Temp;Humidity;BMP_temperature;BMP_pressure;BME280_temperature;BME280_humidity;BME280_pressure;Samples;Min_cycle;Max_cycle;Signal;HPM_P1;HPM_P2
2023/05/06 00:00:00;;;;;;;14.40;11.53;;;8.00;91.70;;;;;;4956979;28;20701;-89
2023/05/06 00:02:28;;;;;;;17.20;12.40;;;8.00;91.70;;;;;;4956912;28;20561;-89
2023/05/06 00:04:53;;;;;;;12.60;11.07;;;8.00;91.70;;;;;;4974257;28;20181;-89
2023/05/06 00:07:22;;;;;;;15.40;12.07;;;8.00;91.70;;;;;;4974447;28;20183;-89
2023/05/06 00:09:48;;;;;;;13.90;12.30;;;8.00;91.70;;;;;;4957201;28;20245;-89
2023/05/06 00:12:13;;;;;;;19.90;13.00;;;8.00;91.80;;;;;;4956792;28;20170;-89
2023/05/06 00:14:39;;;;;;;23.40;13.13;;;8.00;91.80;;;;;;4957368;28;20170;-89
2023/05/06 00:17:05;;;;;;;14.87;13.30;;;7.90;91.90;;;;;;4956768;28;20179;-89
2023/05/06 00:19:31;;;;;;;24.43;13.90;;;7.90;92.00;;;;;;4956723;28;20183;-90
2023/05/06 00:21:57;;;;;;;16.00;13.93;;;8.00;92.00;;;;;;4973915;28;20289;-89
2023/05/06 00:24:22;;;;;;;17.67;13.50;;;7.90;92.10;;;;;;4956722;28;20716;-89
2023/05/06 00:26:48;;;;;;;16.97;13.70;;;7.90;92.20;;;;;;4961035;28;20244;-91
2023/05/06 00:29:13;;;;;;;15.53;14.03;;;7.90;92.20;;;;;;4961134;28;20289;-89
2023/05/06 00:31:39;;;;;;;19.77;14.70;;;7.90;92.20;;;;;;4961289;28;20195;-90
2023/05/06 00:34:05;;;;;;;17.93;15.13;;;7.90;92.30;;;;;;4961753;28;20171;-90
2023/05/06 00:36:31;;;;;;;16.57;14.73;;;8.00;92.40;;;;;;4979781;28;20174;-90
2023/05/06 00:38:56;;;;;;;18.33;14.83;;;8.00;92.40;;;;;;4960149;28;20183;-90
2023/05/06 00:41:22;;;;;;;18.00;14.40;;;7.90;92.50;;;;;;4959959;28;20697;-90
2023/05/06 00:43:48;;;;;;;20.13;15.03;;;7.90;92.60;;;;;;4960066;28;20559;-90
2023/05/06 00:46:15;;;;;;;15.73;13.83;;;7.90;92.60;;;;;;4960117;28;20179;-90
2023/05/06 00:48:42;;;;;;;14.77;13.27;;;7.90;92.60;;;;;;4959985;28;20210;-90
2023/05/06 00:51:08;;;;;;;16.87;14.60;;;7.90;92.60;;;;;;4977689;28;20214;-90
2023/05/06 00:53:34;;;;;;;18.80;15.03;;;7.90;92.70;;;;;;4959776;28;20189;-90
2023/05/06 00:56:00;;;;;;;15.77;14.27;;;7.90;92.60;;;;;;4959735;28;20202;-91
2023/05/06 00:58:25;;;;;;;18.30;15.03;;;7.90;92.60;;;;;;4959704;28;20245;-90
2023/05/06 01:00:52;;;;;;;16.53;14.50;;;7.90;92.60;;;;;;4959716;28;20221;-90
2023/05/06 01:03:17;;;;;;;18.60;15.90;;;7.90;92.60;;;;;;4960427;28;20175;-90
2023/05/06 01:06:03;;;;;;;21.37;15.87;;;7.90;92.60;;;;;;4976959;28;20185;-91
2023/05/06 01:08:34;;;;;;;20.67;15.00;;;7.90;92.60;;;;;;4977022;28;20190;-90
2023/05/06 01:11:03;;;;;;;16.93;14.43;;;8.00;92.70;;;;;;4959871;28;20194;-90
2023/05/06 01:13:45;;;;;;;17.47;15.70;;;7.90;92.70;;;;;;4959526;28;20179;-91
2023/05/06 01:16:13;;;;;;;18.97;15.00;;;7.90;92.80;;;;;;4977100;28;20221;-90
2023/05/06 01:18:39;;;;;;;16.03;14.57;;;7.80;92.90;;;;;;4959370;28;20265;-90
2023/05/06 01:21:06;;;;;;;19.97;16.43;;;7.80;92.90;;;;;;4976812;28;20747;-90
2023/05/06 01:23:56;;;;;;;16.90;15.03;;;7.80;93.00;;;;;;4959241;28;20171;-90
2023/05/06 01:26:22;;;;;;;23.90;15.93;;;7.80;93.10;;;;;;4959372;28;20163;-90
2023/05/06 01:28:48;;;;;;;19.73;17.30;;;7.80;93.20;;;;;;4959095;28;20237;-90
2023/05/06 01:31:26;;;;;;;19.17;17.40;;;7.80;93.20;;;;;;4959093;28;20226;-91
2023/05/06 01:34:12;;;;;;;19.63;17.63;;;7.80;93.30;;;;;;4976572;28;20161;-90
2023/05/06 01:37:00;;;;;;;21.17;18.07;;;7.80;93.30;;;;;;4959241;28;20221;-91
2023/05/06 01:39:29;;;;;;;19.90;17.87;;;7.80;93.40;;;;;;4959105;28;20265;-90
2023/05/06 01:41:58;;;;;;;20.07;18.03;;;7.80;93.50;;;;;;4958820;28;20233;-90
2023/05/06 01:44:28;;;;;;;22.80;18.27;;;7.80;93.50;;;;;;4958925;28;20661;-90
2023/05/06 01:46:55;;;;;;;19.87;17.13;;;7.80;93.60;;;;;;4958870;28;20175;-90
2023/05/06 01:49:22;;;;;;;20.37;17.67;;;7.80;93.60;;;;;;4958768;28;20606;-90
2023/05/06 01:51:48;;;;;;;18.93;17.30;;;7.80;93.60;;;;;;4959070;28;20210;-90
2023/05/06 01:54:14;;;;;;;19.87;17.90;;;7.80;93.70;;;;;;4958608;28;20179;-90
2023/05/06 01:56:40;;;;;;;23.13;18.63;;;7.80;93.70;;;;;;4958659;28;20185;-90
2023/05/06 01:59:08;;;;;;;20.77;18.50;;;7.80;93.70;;;;;;4958977;28;20183;-90
2023/05/06 02:01:33;;;;;;;20.23;18.33;;;7.80;93.80;;;;;;4975745;28;20190;-90
2023/05/06 02:04:00;;;;;;;20.10;17.97;;;7.80;93.80;;;;;;4958479;28;20306;-90
2023/05/06 02:06:25;;;;;;;20.60;18.70;;;7.80;93.80;;;;;;4958462;28;20178;-90
2023/05/06 02:08:51;;;;;;;23.43;17.70;;;7.80;93.80;;;;;;4975515;28;20195;-90
2023/05/06 02:11:17;;;;;;;21.47;19.17;;;7.80;93.90;;;;;;4958174;28;20237;-90
2023/05/06 02:13:43;;;;;;;20.63;18.73;;;7.80;93.90;;;;;;4958488;28;20179;-90
2023/05/06 02:16:09;;;;;;;21.57;19.27;;;7.80;93.90;;;;;;4958294;28;20175;-90
2023/05/06 02:18:34;;;;;;;21.47;19.17;;;7.80;93.90;;;;;;4958161;28;20186;-90
2023/05/06 02:21:02;;;;;;;22.83;18.97;;;7.80;93.90;;;;;;4958019;28;20194;-90
2023/05/06 02:23:27;;;;;;;21.40;19.13;;;7.80;94.00;;;;;;4958690;28;20276;-90
2023/05/06 02:25:53;;;;;;;22.47;19.17;;;7.80;94.00;;;;;;4958031;28;20190;-91
2023/05/06 02:28:18;;;;;;;20.50;18.47;;;7.80;94.00;;;;;;4957999;28;20552;-90
2023/05/06 02:30:44;;;;;;;20.83;18.70;;;7.80;94.10;;;;;;4957872;28;20704;-90
2023/05/06 02:33:09;;;;;;;23.17;20.73;;;7.90;94.10;;;;;;4975270;28;20171;-90
2023/05/06 02:35:35;;;;;;;21.77;19.70;;;7.80;94.10;;;;;;4957869;28;20352;-90
2023/05/06 02:38:00;;;;;;;23.23;18.90;;;7.80;94.10;;;;;;4958067;28;20183;-90
2023/05/06 02:40:26;;;;;;;21.67;19.57;;;7.80;94.10;;;;;;4975179;28;20199;-90
2023/05/06 02:42:52;;;;;;;21.33;19.43;;;7.80;94.10;;;;;;4957797;28;20274;-90
2023/05/06 02:45:17;;;;;;;22.93;20.57;;;7.80;94.20;;;;;;4975267;28;20187;-90
2023/05/06 02:47:43;;;;;;;23.00;20.87;;;7.80;94.20;;;;;;4957265;28;20186;-90
2023/05/06 02:50:09;;;;;;;24.10;19.93;;;7.80;94.20;;;;;;4974902;28;20628;-90
2023/05/06 02:52:34;;;;;;;25.47;20.97;;;7.80;94.30;;;;;;4958163;28;20205;-90
2023/05/06 02:55:00;;;;;;;25.27;20.70;;;7.80;94.30;;;;;;4957580;28;20265;-90
2023/05/06 02:57:26;;;;;;;24.80;22.47;;;7.80;94.30;;;;;;4957543;28;20214;-90
2023/05/06 02:59:51;;;;;;;28.00;22.57;;;7.90;94.40;;;;;;4974717;28;20273;-90
2023/05/06 03:02:17;;;;;;;24.43;22.13;;;7.90;94.40;;;;;;4957559;28;20186;-91
2023/05/06 03:04:42;;;;;;;22.27;20.33;;;7.90;94.40;;;;;;4957443;28;20656;-90
2023/05/06 03:07:08;;;;;;;23.53;21.40;;;7.90;94.40;;;;;;4957722;28;20177;-90
2023/05/06 03:09:34;;;;;;;25.17;22.93;;;7.90;94.50;;;;;;4957329;28;20613;-90
2023/05/06 03:12:00;;;;;;;27.07;22.53;;;7.90;94.50;;;;;;4957611;28;20191;-90
2023/05/06 03:14:26;;;;;;;26.13;23.20;;;7.90;94.50;;;;;;4974646;28;20226;-91
2023/05/06 03:16:52;;;;;;;23.77;20.63;;;7.90;94.50;;;;;;4957272;28;20175;-90
2023/05/06 03:19:17;;;;;;;26.70;24.00;;;7.90;94.50;;;;;;4957304;28;20186;-90
2023/05/06 03:21:43;;;;;;;22.73;20.50;;;7.80;94.50;;;;;;4957366;28;20743;-90
2023/05/06 03:24:08;;;;;;;25.40;21.47;;;7.90;94.50;;;;;;4957222;28;20600;-90
2023/05/06 03:26:34;;;;;;;25.40;22.77;;;7.80;94.50;;;;;;4957223;28;20593;-90
2023/05/06 03:29:00;;;;;;;24.73;22.67;;;7.90;94.50;;;;;;4974393;28;20221;-90
2023/05/06 03:31:25;;;;;;;25.80;23.40;;;7.90;94.60;;;;;;4957049;28;20334;-90
2023/05/06 03:33:51;;;;;;;26.43;24.03;;;7.90;94.60;;;;;;4974488;28;20297;-90
2023/05/06 03:36:16;;;;;;;26.70;24.17;;;7.90;94.60;;;;;;4957047;28;20549;-89
2023/05/06 03:38:42;;;;;;;24.73;22.47;;;7.90;94.60;;;;;;4957035;28;20623;-90
2023/05/06 03:41:08;;;;;;;25.83;23.13;;;7.90;94.60;;;;;;4956226;28;20205;-89
2023/05/06 03:43:33;;;;;;;26.17;22.73;;;7.90;94.60;;;;;;4974286;28;20175;-90
2023/05/06 03:45:59;;;;;;;25.83;23.40;;;7.90;94.60;;;;;;4957000;28;20687;-90
2023/05/06 03:48:25;;;;;;;29.97;23.70;;;7.90;94.60;;;;;;4974258;28;20198;-90
2023/05/06 03:50:50;;;;;;;25.73;23.17;;;7.90;94.60;;;;;;4974072;28;20718;-90
2023/05/06 03:53:16;;;;;;;26.40;22.73;;;7.90;94.60;;;;;;4956923;28;20174;-90
2023/05/06 03:55:42;;;;;;;25.47;22.93;;;7.90;94.60;;;;;;4956797;28;20206;-90
2023/05/06 03:58:07;;;;;;;26.57;24.13;;;7.90;94.60;;;;;;4956925;28;20208;-89
2023/05/06 04:00:33;;;;;;;26.03;23.60;;;8.00;94.60;;;;;;4976049;28;20209;-90
2023/05/06 04:02:58;;;;;;;27.57;24.83;;;7.90;94.50;;;;;;4960674;28;20178;-90
2023/05/06 04:05:24;;;;;;;27.60;25.10;;;8.00;94.60;;;;;;4977971;28;20225;-90
2023/05/06 04:07:49;;;;;;;26.30;23.50;;;8.00;94.60;;;;;;4960517;28;20237;-90
2023/05/06 04:10:15;;;;;;;27.00;24.53;;;8.00;94.60;;;;;;4960623;28;20696;-90
2023/05/06 04:12:40;;;;;;;27.13;24.53;;;7.90;94.60;;;;;;4960689;28;20178;-90
2023/05/06 04:15:07;;;;;;;26.13;23.80;;;8.00;94.60;;;;;;4977694;28;20170;-90
2023/05/06 04:17:32;;;;;;;26.80;24.23;;;8.00;94.50;;;;;;4977891;28;20171;-89
2023/05/06 04:19:58;;;;;;;28.07;25.40;;;8.00;94.50;;;;;;4960353;28;20199;-90
2023/05/06 04:22:23;;;;;;;27.63;24.87;;;8.00;94.60;;;;;;4960247;28;20183;-90
2023/05/06 04:24:52;;;;;;;27.73;24.87;;;8.00;94.50;;;;;;4960416;28;20213;-90
2023/05/06 04:27:17;;;;;;;28.67;25.27;;;8.00;94.50;;;;;;4960411;28;20614;-90
2023/05/06 04:29:43;;;;;;;29.57;26.80;;;8.00;94.50;;;;;;4959992;28;20203;-90
2023/05/06 04:32:10;;;;;;;27.40;25.00;;;7.90;94.50;;;;;;4977642;28;20179;-90
2023/05/06 04:34:36;;;;;;;28.77;26.07;;;8.00;94.50;;;;;;4960205;28;20183;-90
2023/05/06 04:37:01;;;;;;;27.67;24.87;;;7.90;94.50;;;;;;4977642;28;20175;-90
2023/05/06 04:39:27;;;;;;;27.80;25.03;;;8.00;94.50;;;;;;4961002;28;20193;-89
2023/05/06 04:41:53;;;;;;;25.03;22.63;;;8.00;94.50;;;;;;4959962;28;20696;-90
2023/05/06 04:44:18;;;;;;;27.40;24.77;;;8.00;94.50;;;;;;4959918;28;20178;-91
2023/05/06 04:46:44;;;;;;;26.00;23.33;;;8.00;94.50;;;;;;4959855;28;20221;-89
2023/05/06 04:49:10;;;;;;;26.20;23.63;;;7.90;94.50;;;;;;4959728;28;20194;-89
2023/05/06 04:51:35;;;;;;;25.70;23.07;;;7.90;94.40;;;;;;4976907;28;20721;-90
2023/05/06 04:54:01;;;;;;;25.60;23.23;;;7.90;94.40;;;;;;4959673;28;20175;-90
2023/05/06 04:56:26;;;;;;;25.77;23.20;;;7.90;94.40;;;;;;4959688;28;20270;-90
2023/05/06 04:58:52;;;;;;;27.30;24.57;;;7.90;94.40;;;;;;4959770;28;20187;-90
2023/05/06 05:01:18;;;;;;;27.60;25.27;;;7.90;94.40;;;;;;4959562;28;20199;-90
2023/05/06 05:03:44;;;;;;;27.63;24.97;;;8.00;94.30;;;;;;4976816;28;20179;-90
2023/05/06 05:06:12;;;;;;;28.03;25.13;;;8.00;94.30;;;;;;4959453;28;20206;-90
2023/05/06 05:08:37;;;;;;;28.43;25.77;;;8.00;94.30;;;;;;4976690;28;20182;-90
2023/05/06 05:11:05;;;;;;;26.03;22.67;;;8.00;94.30;;;;;;4976171;28;20186;-90
2023/05/06 05:13:30;;;;;;;24.20;21.90;;;8.00;94.30;;;;;;4976884;28;20278;-90
2023/05/06 05:15:56;;;;;;;26.53;23.80;;;7.90;94.30;;;;;;4959320;28;20730;-90
2023/05/06 05:18:22;;;;;;;27.70;24.90;;;7.90;94.30;;;;;;4959319;28;20527;-90
2023/05/06 05:20:47;;;;;;;27.33;24.70;;;7.90;94.30;;;;;;4959230;28;20202;-90
2023/05/06 05:23:13;;;;;;;26.47;24.17;;;7.90;94.30;;;;;;4976481;28;20250;-91
2023/05/06 05:25:38;;;;;;;28.33;25.80;;;7.90;94.30;;;;;;4976773;28;20260;-89
2023/05/06 05:28:04;;;;;;;27.33;24.83;;;7.90;94.30;;;;;;4976724;28;20170;-91
2023/05/06 05:30:29;;;;;;;24.80;22.23;;;7.90;94.30;;;;;;4959046;28;20708;-90
2023/05/06 05:32:55;;;;;;;26.37;23.77;;;7.90;94.30;;;;;;4959203;28;20551;-89
2023/05/06 05:35:20;;;;;;;26.73;24.00;;;7.90;94.30;;;;;;4959024;28;20171;-89
2023/05/06 05:37:46;;;;;;;28.40;25.50;;;7.90;94.30;;;;;;4959207;28;20260;-89
2023/05/06 05:40:12;;;;;;;27.80;24.93;;;7.90;94.40;;;;;;4976264;28;20195;-90
2023/05/06 05:42:38;;;;;;;30.00;26.20;;;8.00;94.40;;;;;;4959065;28;20189;-90
2023/05/06 05:45:04;;;;;;;27.97;25.27;;;7.90;94.40;;;;;;4959263;28;20193;-91
2023/05/06 05:47:30;;;;;;;21.17;19.10;;;7.90;94.40;;;;;;4959457;28;20179;-90
2023/05/06 05:49:55;;;;;;;25.30;19.10;;;7.90;94.40;;;;;;4975910;28;20210;-90
2023/05/06 05:52:21;;;;;;;22.87;19.27;;;7.90;94.40;;;;;;4958796;28;20187;-90
2023/05/06 05:54:47;;;;;;;22.23;18.10;;;8.00;94.40;;;;;;4958646;28;20179;-90
2023/05/06 05:57:12;;;;;;;21.70;19.30;;;8.00;94.40;;;;;;4958762;28;20175;-90
2023/05/06 05:59:38;;;;;;;22.03;19.17;;;7.90;94.40;;;;;;4958523;28;20213;-90
2023/05/06 06:02:04;;;;;;;23.93;19.70;;;8.00;94.50;;;;;;4958866;28;20179;-90
2023/05/06 06:04:29;;;;;;;24.93;18.73;;;8.00;94.40;;;;;;4975830;28;20182;-90
2023/05/06 06:07:00;;;;;;;19.83;17.90;;;8.00;94.40;;;;;;4958468;28;20183;-90
2023/05/06 06:09:26;;;;;;;19.10;17.30;;;8.00;94.40;;;;;;4958518;28;20621;-90
2023/05/06 06:11:51;;;;;;;24.57;20.63;;;7.90;94.40;;;;;;4958340;28;20199;-90
2023/05/06 06:14:17;;;;;;;22.67;20.40;;;8.00;94.40;;;;;;4975513;28;20252;-90
2023/05/06 06:16:42;;;;;;;28.90;26.30;;;8.00;94.40;;;;;;4975555;28;20181;-89
2023/05/06 06:19:08;;;;;;;29.00;26.37;;;8.10;94.40;;;;;;4958542;28;20183;-90
2023/05/06 06:21:34;;;;;;;31.07;28.07;;;8.00;94.40;;;;;;4975563;28;20274;-89
2023/05/06 06:24:00;;;;;;;31.10;28.30;;;8.10;94.50;;;;;;4975066;28;20170;-90
2023/05/06 06:26:26;;;;;;;30.77;27.77;;;8.10;94.40;;;;;;4958904;28;20253;-90
2023/05/06 06:28:51;;;;;;;28.90;26.30;;;8.10;94.40;;;;;;4958101;28;20185;-90
2023/05/06 06:31:17;;;;;;;30.23;27.47;;;8.10;94.40;;;;;;4957991;28;20198;-90
2023/05/06 06:33:43;;;;;;;30.73;27.83;;;8.10;94.40;;;;;;4975250;28;20185;-90
2023/05/06 06:36:11;;;;;;;31.67;28.53;;;8.20;94.40;;;;;;4958528;28;20175;-90
2023/05/06 06:38:37;;;;;;;30.27;27.43;;;8.20;94.40;;;;;;4957890;28;20175;-90
2023/05/06 06:41:03;;;;;;;29.53;26.73;;;8.10;94.30;;;;;;4958007;28;20248;-90
2023/05/06 06:43:29;;;;;;;30.23;27.33;;;8.20;94.30;;;;;;4958407;28;20269;-90
2023/05/06 06:45:55;;;;;;;30.40;27.30;;;8.20;94.30;;;;;;4957762;28;20276;-89
2023/05/06 06:48:20;;;;;;;29.97;26.90;;;8.20;94.30;;;;;;4957747;28;20174;-89
2023/05/06 06:50:46;;;;;;;29.50;27.07;;;8.20;94.20;;;;;;4957920;28;20241;-88
2023/05/06 06:53:12;;;;;;;29.50;26.63;;;8.20;94.20;;;;;;4957713;28;20664;-89
2023/05/06 06:55:37;;;;;;;30.17;27.17;;;8.20;94.10;;;;;;4974914;28;20174;-89
2023/05/06 06:58:03;;;;;;;28.83;26.13;;;8.30;94.20;;;;;;4957442;28;20174;-90
2023/05/06 07:00:28;;;;;;;28.83;25.73;;;8.20;94.00;;;;;;4958161;28;20199;-89
2023/05/06 07:02:54;;;;;;;28.97;26.17;;;8.20;94.00;;;;;;4957742;28;20641;-89
2023/05/06 07:05:19;;;;;;;30.13;27.10;;;8.20;94.00;;;;;;4957447;28;20174;-89
2023/05/06 07:07:45;;;;;;;26.97;24.10;;;8.10;93.90;;;;;;4957675;28;20269;-89
2023/05/06 07:10:10;;;;;;;29.80;26.57;;;8.10;93.90;;;;;;4974549;28;20256;-89
2023/05/06 07:12:36;;;;;;;29.70;27.00;;;8.20;93.90;;;;;;4957350;28;20613;-88
2023/05/06 07:15:05;;;;;;;30.20;27.33;;;8.30;94.00;;;;;;4957488;28;20270;-89
2023/05/06 07:17:34;;;;;;;29.67;26.93;;;8.30;93.90;;;;;;4957213;28;20588;-89
2023/05/06 07:20:00;;;;;;;28.33;23.27;;;8.30;93.90;;;;;;4957322;28;20201;-89
2023/05/06 07:22:27;;;;;;;27.97;25.33;;;8.30;94.00;;;;;;4957670;28;20178;-89
2023/05/06 07:24:52;;;;;;;31.60;25.50;;;8.40;93.90;;;;;;4957505;28;20554;-88
2023/05/06 07:27:18;;;;;;;28.67;26.10;;;8.30;93.80;;;;;;4957176;28;20266;-88
2023/05/06 07:29:43;;;;;;;27.73;24.93;;;8.30;93.80;;;;;;4957812;28;20213;-88
2023/05/06 07:32:09;;;;;;;27.67;25.17;;;8.40;93.80;;;;;;4957657;28;20545;-88
2023/05/06 07:34:35;;;;;;;29.60;26.83;;;8.30;93.70;;;;;;4959281;28;20182;-89
2023/05/06 07:37:01;;;;;;;30.07;26.83;;;8.30;93.70;;;;;;4978874;28;20229;-87
2023/05/06 07:39:26;;;;;;;29.70;26.87;;;8.40;93.70;;;;;;4961248;28;20187;-88
2023/05/06 07:41:52;;;;;;;27.20;24.60;;;8.50;93.70;;;;;;4960947;28;20217;-89
2023/05/06 07:44:17;;;;;;;26.00;23.43;;;8.50;93.70;;;;;;4961065;28;20178;-88
2023/05/06 07:46:43;;;;;;;28.27;25.67;;;8.40;93.50;;;;;;4961950;28;20186;-89
2023/05/06 07:49:08;;;;;;;27.07;24.27;;;8.40;93.50;;;;;;4961422;28;20684;-88
2023/05/06 07:51:34;;;;;;;30.53;25.37;;;8.50;93.60;;;;;;4961741;28;20260;-88
2023/05/06 07:54:00;;;;;;;27.93;25.37;;;8.50;93.50;;;;;;4962739;28;20261;-87
2023/05/06 07:56:25;;;;;;;31.43;24.47;;;8.50;93.40;;;;;;4978650;28;20553;-88
2023/05/06 07:58:51;;;;;;;26.43;23.90;;;8.50;93.40;;;;;;4978482;28;20234;-88
2023/05/06 08:01:16;;;;;;;27.73;25.07;;;8.50;93.40;;;;;;4961069;28;20198;-88
2023/05/06 08:03:42;;;;;;;26.97;24.37;;;8.50;93.40;;;;;;4961386;28;20183;-87
2023/05/06 08:06:08;;;;;;;28.67;25.53;;;8.60;93.40;;;;;;4978934;28;20254;-87
2023/05/06 08:08:33;;;;;;;30.90;26.20;;;8.50;93.30;;;;;;4960960;28;20171;-88
2023/05/06 08:10:59;;;;;;;30.10;26.73;;;8.60;93.40;;;;;;4960644;28;20214;-88
2023/05/06 08:13:26;;;;;;;33.70;26.53;;;8.70;93.40;;;;;;4960931;28;20709;-88
2023/05/06 08:15:52;;;;;;;28.87;26.00;;;8.70;93.30;;;;;;4960866;28;20270;-88
2023/05/06 08:18:18;;;;;;;29.17;26.40;;;8.70;93.30;;;;;;4961034;28;20206;-89
2023/05/06 08:20:43;;;;;;;28.63;25.50;;;8.70;93.30;;;;;;4960561;28;20198;-89
2023/05/06 08:23:09;;;;;;;32.43;25.80;;;8.80;93.20;;;;;;4960286;28;20226;-89
2023/05/06 08:25:34;;;;;;;29.03;25.97;;;8.80;93.20;;;;;;4960308;28;20175;-88
2023/05/06 08:28:00;;;;;;;27.07;24.30;;;8.80;93.20;;;;;;4960313;28;20182;-88
2023/05/06 08:30:26;;;;;;;27.43;24.53;;;8.90;93.10;;;;;;4960314;28;20229;-88
2023/05/06 08:32:51;;;;;;;29.77;24.67;;;8.80;92.90;;;;;;4977431;28;20179;-88
2023/05/06 08:35:17;;;;;;;27.33;24.57;;;8.80;92.90;;;;;;4960357;28;20233;-88
2023/05/06 08:37:43;;;;;;;27.27;24.53;;;8.90;93.00;;;;;;4977484;28;20179;-89
2023/05/06 08:40:19;;;;;;;28.13;23.53;;;8.90;92.90;;;;;;4960130;28;20309;-89
2023/05/06 08:42:48;;;;;;;26.57;23.97;;;8.90;92.80;;;;;;4960231;28;20178;-89
2023/05/06 08:45:16;;;;;;;27.37;24.53;;;8.90;92.80;;;;;;4959909;28;20182;-88
2023/05/06 08:47:42;;;;;;;26.47;23.80;;;9.00;92.80;;;;;;4960263;28;20269;-88
2023/05/06 08:50:08;;;;;;;27.77;24.77;;;8.90;92.60;;;;;;4960465;28;20718;-89
2023/05/06 08:52:35;;;;;;;27.40;24.73;;;9.00;92.70;;;;;;4959824;28;20289;-89
2023/05/06 08:55:03;;;;;;;28.33;25.50;;;9.00;92.70;;;;;;4959866;28;20174;-89
2023/05/06 08:57:31;;;;;;;26.83;24.23;;;9.10;92.80;;;;;;4959793;28;20175;-89
2023/05/06 08:59:56;;;;;;;33.10;27.50;;;9.10;92.70;;;;;;4977124;28;20187;-89
2023/05/06 09:02:23;;;;;;;25.83;23.03;;;9.10;92.60;;;;;;4959897;28;20202;-88
2023/05/06 09:04:49;;;;;;;27.87;23.23;;;9.20;92.60;;;;;;4960341;28;20651;-87
2023/05/06 09:07:14;;;;;;;27.63;24.80;;;9.10;92.40;;;;;;4959517;28;20183;-88
2023/05/06 09:09:40;;;;;;;27.77;24.60;;;9.10;92.40;;;;;;4976961;28;20210;-88
2023/05/06 09:12:10;;;;;;;26.37;23.63;;;9.10;92.30;;;;;;4959449;28;20171;-89
2023/05/06 09:14:36;;;;;;;24.87;22.27;;;9.10;92.30;;;;;;4959871;28;20167;-90
2023/05/06 09:17:01;;;;;;;29.03;23.73;;;9.20;92.30;;;;;;4959943;28;20225;-91
2023/05/06 09:19:27;;;;;;;28.50;25.57;;;9.20;92.30;;;;;;4978154;28;20179;-91
2023/05/06 09:21:53;;;;;;;27.03;24.20;;;9.30;92.40;;;;;;4977653;28;20195;-91
2023/05/06 09:24:22;;;;;;;30.43;24.37;;;9.30;92.30;;;;;;4961116;28;20189;-91
2023/05/06 09:26:50;;;;;;;31.53;25.80;;;9.30;92.20;;;;;;4959406;28;20186;-90
2023/05/06 09:29:16;;;;;;;30.70;25.33;;;9.40;92.20;;;;;;4959564;28;20353;-88
2023/05/06 09:31:44;;;;;;;28.67;25.67;;;9.60;92.30;;;;;;4959189;28;20297;-89
2023/05/06 09:34:10;;;;;;;29.57;25.17;;;9.60;92.20;;;;;;4959179;28;20637;-89
2023/05/06 09:36:36;;;;;;;27.70;25.00;;;9.60;92.00;;;;;;4959583;28;20179;-87
2023/05/06 09:39:03;;;;;;;26.20;23.63;;;9.50;91.80;;;;;;4959089;28;20597;-89
2023/05/06 09:41:29;;;;;;;29.80;23.97;;;9.60;91.90;;;;;;4958829;28;20302;-91
2023/05/06 09:43:56;;;;;;;26.27;23.57;;;9.50;91.70;;;;;;4976203;28;20225;-90
2023/05/06 09:46:23;;;;;;;24.60;21.93;;;9.70;91.80;;;;;;4958816;28;20189;-89
2023/05/06 09:48:51;;;;;;;35.87;25.30;;;9.70;91.60;;;;;;4975915;28;20187;-90
2023/05/06 09:51:16;;;;;;;28.03;25.27;;;9.80;91.60;;;;;;4958488;28;20647;-90
2023/05/06 09:53:44;;;;;;;25.10;22.47;;;9.80;91.60;;;;;;4975980;28;20230;-90
2023/05/06 09:56:10;;;;;;;27.57;22.97;;;9.80;91.40;;;;;;4976226;28;20179;-91
2023/05/06 09:58:37;;;;;;;26.77;23.93;;;9.70;91.10;;;;;;4975971;28;20171;-89
2023/05/06 10:01:06;;;;;;;27.77;22.77;;;9.80;91.10;;;;;;4958649;28;20293;-89
2023/05/06 10:03:32;;;;;;;23.53;21.37;;;9.80;91.20;;;;;;4976125;28;20655;-90
2023/05/06 10:06:04;;;;;;;26.03;23.37;;;9.80;91.10;;;;;;4958444;28;20229;-89
2023/05/06 10:08:32;;;;;;;26.90;23.60;;;9.80;91.10;;;;;;4958864;28;20186;-90
2023/05/06 10:11:00;;;;;;;26.13;22.93;;;9.80;90.80;;;;;;4958232;28;20223;-90
2023/05/06 10:13:26;;;;;;;29.03;24.07;;;9.80;90.80;;;;;;4958628;28;20317;-89
2023/05/06 10:15:52;;;;;;;29.40;22.80;;;9.80;90.90;;;;;;4975663;28;20179;-90
2023/05/06 10:18:20;;;;;;;32.30;24.23;;;9.80;90.70;;;;;;4975714;28;20175;-89
2023/05/06 10:20:47;;;;;;;27.53;24.43;;;9.80;90.80;;;;;;4958287;28;20206;-90
2023/05/06 10:23:19;;;;;;;26.20;23.57;;;9.80;90.90;;;;;;4975610;28;20202;-90
2023/05/06 10:25:46;;;;;;;28.00;24.87;;;9.80;90.60;;;;;;4975537;28;20652;-89
2023/05/06 10:28:12;;;;;;;26.80;23.97;;;9.80;90.70;;;;;;4975636;28;20206;-90
2023/05/06 10:30:39;;;;;;;26.07;23.23;;;9.80;90.70;;;;;;4975579;28;20288;-89
2023/05/06 10:33:10;;;;;;;28.03;25.00;;;9.90;90.80;;;;;;4958217;28;20194;-89
2023/05/06 10:35:57;;;;;;;24.70;22.40;;;9.90;90.90;;;;;;4958218;28;20645;-89
2023/05/06 10:38:33;;;;;;;25.13;22.50;;;9.90;90.90;;;;;;4975575;28;20159;-89
2023/05/06 10:40:59;;;;;;;26.23;23.40;;;9.90;90.80;;;;;;4975121;28;20201;-89
2023/05/06 10:43:29;;;;;;;28.03;24.93;;;9.80;90.60;;;;;;4958077;28;20182;-89
2023/05/06 10:45:59;;;;;;;31.93;23.00;;;10.10;91.00;;;;;;4975365;28;20171;-89
2023/05/06 10:48:25;;;;;;;26.33;22.93;;;10.00;90.70;;;;;;4957906;28;20187;-91
2023/05/06 10:50:50;;;;;;;25.57;22.90;;;9.90;90.40;;;;;;4958123;28;20228;-91
2023/05/06 10:53:16;;;;;;;25.20;22.73;;;9.90;90.40;;;;;;4975350;28;20205;-89
2023/05/06 10:55:41;;;;;;;25.47;22.47;;;10.00;90.60;;;;;;4974899;28;20645;-89
2023/05/06 10:58:10;;;;;;;24.23;21.73;;;10.00;90.50;;;;;;4957645;28;20220;-90
2023/05/06 11:00:36;;;;;;;25.50;22.70;;;10.00;90.40;;;;;;4958066;28;20198;-90
2023/05/06 11:03:07;;;;;;;24.37;21.93;;;9.80;90.20;;;;;;4957423;28;20187;-89
2023/05/06 11:05:50;;;;;;;26.00;23.30;;;9.90;90.30;;;;;;4957571;28;20179;-89
2023/05/06 11:08:23;;;;;;;27.67;24.70;;;10.00;90.50;;;;;;4957931;28;20187;-89
2023/05/06 11:10:49;;;;;;;27.07;24.17;;;10.10;90.60;;;;;;4958158;28;20215;-89
2023/05/06 11:13:25;;;;;;;27.23;24.27;;;10.20;90.70;;;;;;4958223;28;20178;-89
2023/05/06 11:15:57;;;;;;;29.77;23.93;;;10.20;90.50;;;;;;4958127;28;20178;-89
2023/05/06 11:18:30;;;;;;;26.80;24.13;;;10.10;90.30;;;;;;4958069;28;20187;-89
2023/05/06 11:20:59;;;;;;;28.43;22.33;;;10.10;90.40;;;;;;4958009;28;20203;-89
2023/05/06 11:23:45;;;;;;;26.30;23.63;;;10.10;90.10;;;;;;4957243;28;20186;-89
2023/05/06 11:26:12;;;;;;;28.93;23.60;;;10.20;90.20;;;;;;4958128;28;20273;-89
2023/05/06 11:28:38;;;;;;;25.23;21.67;;;10.20;90.20;;;;;;4974821;28;20214;-89
2023/05/06 11:31:04;;;;;;;23.83;21.27;;;10.30;90.20;;;;;;4957018;28;20313;-89
2023/05/06 11:33:35;;;;;;;26.50;22.53;;;10.30;90.00;;;;;;4974521;28;20190;-89
2023/05/06 11:36:02;;;;;;;23.93;21.40;;;10.30;90.10;;;;;;4974323;28;20543;-89
2023/05/06 11:38:45;;;;;;;26.47;23.13;;;10.30;89.80;;;;;;4957021;28;20233;-89
2023/05/06 11:41:11;;;;;;;24.63;22.17;;;10.30;89.90;;;;;;4974675;28;20191;-89
2023/05/06 11:43:37;;;;;;;23.13;20.97;;;10.30;89.80;;;;;;4956594;28;20277;-88
2023/05/06 11:46:03;;;;;;;25.83;22.97;;;10.40;90.00;;;;;;4957126;28;20217;-89
2023/05/06 11:48:29;;;;;;;26.80;22.60;;;10.40;90.00;;;;;;4957497;28;20625;-89
2023/05/06 11:50:54;;;;;;;26.30;23.70;;;10.30;89.70;;;;;;4957052;28;20613;-89
2023/05/06 11:53:22;;;;;;;26.67;24.03;;;10.30;89.90;;;;;;4974256;28;20233;-89
2023/05/06 11:55:50;;;;;;;26.17;23.40;;;10.20;89.70;;;;;;4956918;28;20684;-88
2023/05/06 11:58:24;;;;;;;24.47;21.77;;;10.20;89.80;;;;;;4957367;28;20187;-89
2023/05/06 12:00:55;;;;;;;24.30;21.80;;;10.20;89.70;;;;;;4957105;28;20243;-88
2023/05/06 12:03:27;;;;;;;25.03;22.20;;;10.20;90.00;;;;;;4974156;28;20189;-88
2023/05/06 12:05:53;;;;;;;23.67;21.37;;;10.20;90.00;;;;;;4974131;28;20249;-89
2023/05/06 12:08:23;;;;;;;24.77;20.90;;;10.30;89.80;;;;;;4957385;28;20194;-88
2023/05/06 12:10:50;;;;;;;24.47;21.83;;;10.40;90.10;;;;;;4956817;28;20273;-88
2023/05/06 12:13:17;;;;;;;22.83;20.37;;;10.30;89.80;;;;;;4956849;28;20175;-88
2023/05/06 12:15:44;;;;;;;23.03;20.07;;;10.30;89.60;;;;;;4957113;28;20624;-88
2023/05/06 12:18:11;;;;;;;22.90;20.60;;;10.30;89.80;;;;;;4956715;28;20183;-89
2023/05/06 12:20:37;;;;;;;21.47;19.23;;;10.30;89.50;;;;;;4957054;28;20210;-88
2023/05/06 12:23:14;;;;;;;21.93;19.73;;;10.40;89.70;;;;;;4961149;28;20230;-88
2023/05/06 12:25:41;;;;;;;21.20;19.10;;;10.40;89.50;;;;;;4977796;28;20637;-87
2023/05/06 12:28:16;;;;;;;25.67;21.80;;;10.40;89.40;;;;;;4977691;28;20732;-89
2023/05/06 12:30:42;;;;;;;23.73;21.23;;;10.50;89.60;;;;;;4960424;28;20691;-89
2023/05/06 12:33:08;;;;;;;24.00;21.30;;;10.60;89.40;;;;;;4960092;28;20229;-88